Time;durP1;ratioP1;P1;durP2;ratioP2;P2;SDS_P1;SDS_P2;PMS_P1;PMS_P2;Temp;Humidity;BMP_temperature;BMP_pressure;BME280_temperature;BME280_humidity;BME280_pressure;Samples;Min_cycle;Max_cycle;Signal;HPM_P1;HPM_P2
2024/03/20 00:00:14;;;;;;;21.10;16.40;;;;;;;2.33;73.77;100815.36;104863;1250;97393;-68
2024/03/20 00:03:01;;;;;;;21.80;16.30;;;;;;;2.32;73.87;100813.29;103649;1251;109066;-67
2024/03/20 00:05:28;;;;;;;21.60;16.20;;;;;;;2.31;73.96;100810.89;103488;1251;99171;-67
2024/03/20 00:07:55;;;;;;;23.00;16.60;;;;;;;2.31;74.02;100809.67;104153;1251;139479;-67
2024/03/20 00:10:22;;;;;;;23.90;16.50;;;;;;;2.29;73.97;100812.06;103455;1251;108344;-67
2024/03/20 00:12:49;;;;;;;25.60;17.40;;;;;;;2.27;74.11;100812.73;103784;1251;138898;-67
2024/03/20 00:15:15;;;;;;;24.80;16.50;;;;;;;2.25;74.11;100810.14;103270;1254;108485;-67
2024/03/20 00:17:44;;;;;;;22.20;17.00;;;;;;;2.22;74.17;100808.40;103328;1251;99172;-67
2024/03/20 00:20:12;;;;;;;25.80;17.30;;;;;;;2.18;74.32;100811.63;103147;1254;138612;-67
2024/03/20 00:22:38;;;;;;;23.80;16.40;;;;;;;2.14;74.45;100813.62;103331;1257;109167;-67
2024/03/20 00:25:06;;;;;;;23.70;16.80;;;;;;;2.10;74.54;100816.84;103258;1251;138776;-67
2024/03/20 00:27:33;;;;;;;27.60;17.50;;;;;;;2.07;74.70;100816.80;103419;1255;107554;-67
2024/03/20 00:30:00;;;;;;;24.10;18.30;;;;;;;2.05;74.70;100812.15;103363;1254;99175;-67
2024/03/20 00:32:26;;;;;;;24.00;18.00;;;;;;;2.03;74.96;100808.36;103229;1254;138497;-67
2024/03/20 00:34:53;;;;;;;24.50;17.30;;;;;;;2.00;74.92;100811.77;103393;1251;107119;-67
2024/03/20 00:37:19;;;;;;;24.20;18.00;;;;;;;1.97;75.16;100807.27;103279;1251;139551;-67
2024/03/20 00:39:46;;;;;;;27.10;17.50;;;;;;;1.95;75.19;100806.02;103296;1251;109458;-67
2024/03/20 00:42:12;;;;;;;23.90;18.10;;;;;;;1.92;75.36;100802.90;103302;1255;99064;-67
2024/03/20 00:44:39;;;;;;;24.20;17.40;;;;;;;1.89;75.41;100802.02;103286;1251;114201;-67
2024/03/20 00:47:06;;;;;;;23.90;17.30;;;;;;;1.86;75.65;100798.20;103316;1252;107599;-67
2024/03/20 00:49:33;;;;;;;25.50;17.40;;;;;;;1.85;75.61;100799.06;103149;1252;138803;-67
2024/03/20 00:52:00;;;;;;;24.70;18.40;;;;;;;1.82;75.70;100800.05;104707;1253;108055;-68
2024/03/20 00:54:27;;;;;;;26.50;18.30;;;;;;;1.79;75.88;100792.64;104173;1251;149505;-68
2024/03/20 00:56:53;;;;;;;24.50;17.70;;;;;;;1.79;76.02;100802.39;103388;1251;113220;-68
2024/03/20 00:59:20;;;;;;;22.40;17.00;;;;;;;1.76;76.03;100797.22;102598;1254;1002994;-68
2024/03/20 01:01:47;;;;;;;24.00;17.70;;;;;;;1.74;75.94;100795.48;103239;1252;140173;-67
2024/03/20 01:04:14;;;;;;;25.40;18.00;;;;;;;1.71;76.04;100795.45;103239;1251;109230;-68
2024/03/20 01:06:41;;;;;;;22.90;16.60;;;;;;;1.68;76.15;100791.64;103231;1251;138926;-68
2024/03/20 01:09:07;;;;;;;23.70;17.30;;;;;;;1.66;76.34;100790.25;104392;1252;112289;-68
2024/03/20 01:11:34;;;;;;;24.00;17.40;;;;;;;1.63;76.34;100785.59;103314;1251;107158;-68
2024/03/20 01:14:01;;;;;;;27.20;18.30;;;;;;;1.60;76.25;100788.27;103336;1252;139782;-68
2024/03/20 01:16:28;;;;;;;24.70;17.60;;;;;;;1.57;76.37;100790.45;103351;1251;107524;-68
2024/03/20 01:18:54;;;;;;;24.00;18.60;;;;;;;1.55;76.48;100788.55;103453;1257;139039;-68
2024/03/20 01:21:21;;;;;;;24.20;17.60;;;;;;;1.54;76.58;100791.63;102568;1251;1003054;-68
2024/03/20 01:23:47;;;;;;;26.90;17.90;;;;;;;1.51;76.62;100792.45;102568;1251;1003789;-68
2024/03/20 01:26:14;;;;;;;25.00;17.60;;;;;;;1.48;76.67;100797.22;103185;1252;139052;-68
2024/03/20 01:28:40;;;;;;;24.30;17.40;;;;;;;1.45;76.77;100793.93;103278;1256;109364;-68
2024/03/20 01:31:07;;;;;;;23.70;18.60;;;;;;;1.43;76.78;100802.27;103081;1252;1003485;-68
2024/03/20 01:33:33;;;;;;;25.20;17.60;;;;;;;1.41;76.99;100799.32;103479;1252;113146;-68
2024/03/20 01:36:00;;;;;;;26.20;18.50;;;;;;;1.39;76.93;100800.16;103398;1251;107649;-68
2024/03/20 01:38:26;;;;;;;26.10;17.90;;;;;;;1.36;77.12;100800.30;103503;1251;138766;-68
2024/03/20 01:40:53;;;;;;;26.10;19.30;;;;;;;1.33;77.14;100798.38;104337;1252;106735;-68
2024/03/20 01:43:21;;;;;;;26.50;19.40;;;;;;;1.30;77.37;100799.02;103291;1256;138819;-68
2024/03/20 01:45:49;;;;;;;25.00;18.60;;;;;;;1.28;77.44;100802.75;103250;1251;113009;-68
2024/03/20 01:48:16;;;;;;;24.50;18.60;;;;;;;1.25;77.50;100801.84;104594;1251;108475;-68
2024/03/20 01:50:43;;;;;;;25.80;18.40;;;;;;;1.23;77.79;100797.88;103997;1255;98097;-68
2024/03/20 01:53:12;;;;;;;26.70;19.00;;;;;;;1.21;77.91;100799.22;104317;1252;107904;-68
2024/03/20 01:55:40;;;;;;;28.70;19.50;;;;;;;1.20;77.91;100799.04;104581;1251;139165;-67
2024/03/20 01:58:07;;;;;;;22.70;18.10;;;;;;;1.19;78.07;100800.05;103629;1251;112024;-68
2024/03/20 02:00:34;;;;;;;26.70;17.30;;;;;;;1.19;78.13;100798.00;103211;1252;138857;-68
2024/03/20 02:03:01;;;;;;;26.60;19.30;;;;;;;1.17;78.33;100793.70;103992;1251;1002507;-69
2024/03/20 02:05:28;;;;;;;26.30;18.50;;;;;;;1.19;78.23;100797.48;103963;1251;1002725;-67
2024/03/20 02:07:56;;;;;;;24.80;18.90;;;;;;;1.18;78.22;100792.50;102521;1255;1003105;-67
2024/03/20 02:10:23;;;;;;;25.30;18.30;;;;;;;1.17;78.05;100798.82;103485;1252;113156;-68
2024/03/20 02:13:01;;;;;;;23.30;16.90;;;;;;;1.14;78.10;100799.30;102967;1251;1003205;-67
2024/03/20 02:15:29;;;;;;;25.70;18.80;;;;;;;1.13;78.29;100798.95;104514;1253;97613;-66
2024/03/20 02:17:56;;;;;;;26.10;18.70;;;;;;;1.13;78.32;100799.63;104733;1251;108862;-67
2024/03/20 02:20:22;;;;;;;23.70;18.20;;;;;;;1.12;78.46;100798.24;104013;1251;138742;-68
2024/03/20 02:22:49;;;;;;;25.70;17.90;;;;;;;1.12;78.62;100796.88;104039;1252;113161;-68
2024/03/20 02:25:15;;;;;;;25.60;18.30;;;;;;;1.12;78.51;100798.76;103676;1251;139185;-67
2024/03/20 02:27:42;;;;;;;25.00;17.90;;;;;;;1.10;78.38;100801.48;104767;1252;97541;-67
2024/03/20 02:30:12;;;;;;;25.90;18.70;;;;;;;1.08;78.46;100798.20;103363;1252;107894;-67
2024/03/20 02:32:39;;;;;;;25.30;18.10;;;;;;;1.06;78.64;100801.21;104160;1252;138963;-67
2024/03/20 02:35:07;;;;;;;23.20;18.00;;;;;;;1.06;78.62;100804.13;103359;1256;112867;-68
2024/03/20 02:37:33;;;;;;;26.90;18.30;;;;;;;1.05;78.77;100804.80;104206;1251;139316;-69
2024/03/20 02:40:00;;;;;;;26.90;18.90;;;;;;;1.03;78.74;100802.02;104028;1251;100560;-68
2024/03/20 02:42:27;;;;;;;26.30;18.40;;;;;;;1.01;78.76;100801.48;103301;1255;140040;-69
2024/03/20 02:44:54;;;;;;;26.40;20.40;;;;;;;0.99;78.94;100800.95;103827;1251;99238;-67
2024/03/20 02:47:20;;;;;;;25.80;19.00;;;;;;;0.97;78.94;100801.09;104571;1252;113430;-67
2024/03/20 02:49:47;;;;;;;27.90;19.00;;;;;;;0.95;78.84;100799.52;104555;1251;138637;-66
2024/03/20 02:52:14;;;;;;;26.30;18.20;;;;;;;0.92;79.11;100798.63;103672;1252;99194;-67
2024/03/20 02:54:40;;;;;;;25.70;18.60;;;;;;;0.91;79.19;100797.23;103381;1252;138679;-69
2024/03/20 02:57:07;;;;;;;26.90;19.40;;;;;;;0.90;79.19;100799.09;104289;1251;98905;-67
2024/03/20 02:59:34;;;;;;;25.20;18.80;;;;;;;0.87;79.34;100793.90;103971;1251;111895;-68
2024/03/20 03:02:01;;;;;;;25.40;19.10;;;;;;;0.87;79.35;100798.01;104341;1251;139352;-67
2024/03/20 03:04:28;;;;;;;26.80;19.30;;;;;;;0.86;79.40;100803.13;103814;1251;99156;-67
2024/03/20 03:06:54;;;;;;;25.60;18.40;;;;;;;0.85;79.63;100801.39;103801;1251;138724;-67
2024/03/20 03:09:21;;;;;;;25.80;18.80;;;;;;;0.83;79.57;100797.45;103927;1251;99197;-67
2024/03/20 03:11:48;;;;;;;26.90;19.50;;;;;;;0.84;79.63;100800.36;103536;1251;112515;-67
2024/03/20 03:14:16;;;;;;;27.20;19.00;;;;;;;0.81;79.49;100800.33;103577;1251;139706;-67
2024/03/20 03:16:42;;;;;;;28.10;19.60;;;;;;;0.79;79.60;100802.17;103552;1251;99152;-67
2024/03/20 03:19:09;;;;;;;26.50;18.70;;;;;;;0.77;79.60;100802.48;103577;1251;138617;-67
2024/03/20 03:21:36;;;;;;;24.90;18.70;;;;;;;0.75;79.66;100798.70;104592;1252;98382;-67
2024/03/20 03:24:03;;;;;;;28.50;19.70;;;;;;;0.74;79.63;100798.33;104860;1251;112300;-67
2024/03/20 03:26:30;;;;;;;24.90;19.00;;;;;;;0.72;79.83;100796.76;103484;1251;138860;-67
2024/03/20 03:28:57;;;;;;;28.40;19.70;;;;;;;0.72;79.93;100796.41;102883;1253;1003468;-67
2024/03/20 03:31:23;;;;;;;26.40;19.40;;;;;;;0.70;79.89;100796.01;104121;1251;138852;-67
2024/03/20 03:33:50;;;;;;;27.70;19.90;;;;;;;0.69;80.00;100799.77;103765;1251;99132;-67
2024/03/20 03:36:16;;;;;;;28.20;19.70;;;;;;;0.67;79.97;100799.91;103507;1251;112994;-67
2024/03/20 03:38:43;;;;;;;26.70;19.50;;;;;;;0.65;79.88;100800.38;103488;1252;107574;-66
2024/03/20 03:41:10;;;;;;;28.30;19.80;;;;;;;0.61;80.09;100795.54;103618;1253;99165;-67
2024/03/20 03:43:40;;;;;;;28.60;20.30;;;;;;;0.60;80.32;100798.61;103409;1251;139806;-67
2024/03/20 03:46:07;;;;;;;27.70;20.10;;;;;;;0.59;80.29;100798.77;103556;1251;99186;-67
2024/03/20 03:48:34;;;;;;;26.70;19.80;;;;;;;0.58;80.46;100796.53;103873;1251;138722;-67
2024/03/20 03:51:01;;;;;;;27.80;20.20;;;;;;;0.57;80.62;100798.05;103465;1251;108120;-66
2024/03/20 03:53:28;;;;;;;29.60;19.60;;;;;;;0.57;80.66;100799.08;102742;1251;1002584;-67
2024/03/20 03:55:54;;;;;;;29.50;20.40;;;;;;;0.56;80.84;100804.03;103403;1255;138970;-66
2024/03/20 03:58:21;;;;;;;29.10;21.00;;;;;;;0.55;80.90;100800.92;102688;1251;1004032;-66
2024/03/20 04:00:47;;;;;;;30.10;20.40;;;;;;;0.54;80.85;100798.32;103340;1251;139017;-67
2024/03/20 04:03:14;;;;;;;28.00;20.50;;;;;;;0.52;81.13;100797.09;103400;1255;108062;-68
2024/03/20 04:05:41;;;;;;;26.20;19.20;;;;;;;0.51;81.10;100797.75;104075;1251;1003029;-67
2024/03/20 04:08:08;;;;;;;27.00;20.30;;;;;;;0.50;81.22;100798.75;104675;1251;138984;-68
2024/03/20 04:10:36;;;;;;;28.90;20.70;;;;;;;0.49;81.30;100799.60;104826;1251;97454;-67
2024/03/20 04:13:03;;;;;;;27.20;19.30;;;;;;;0.48;81.31;100796.17;104695;1251;138645;-67
2024/03/20 04:15:29;;;;;;;28.70;20.60;;;;;;;0.48;81.38;100793.44;103835;1252;107769;-67
2024/03/20 04:17:55;;;;;;;27.40;20.20;;;;;;;0.50;81.43;100797.73;103490;1251;99953;-67
2024/03/20 04:20:22;;;;;;;27.60;20.00;;;;;;;0.50;81.35;100798.77;103418;1252;139219;-67
2024/03/20 04:22:49;;;;;;;30.30;21.20;;;;;;;0.51;81.46;100797.05;103511;1254;99174;-67
2024/03/20 04:25:16;;;;;;;26.50;19.70;;;;;;;0.51;81.43;100796.73;104782;1251;138970;-67
2024/03/20 04:27:42;;;;;;;29.20;21.00;;;;;;;0.52;81.58;100799.65;103906;1251;107972;-67
2024/03/20 04:30:12;;;;;;;28.60;20.40;;;;;;;0.52;81.47;100802.39;103545;1254;99653;-67
2024/03/20 04:32:38;;;;;;;27.60;20.70;;;;;;;0.53;81.71;100804.30;103501;1251;138544;-66
2024/03/20 04:35:07;;;;;;;28.00;19.50;;;;;;;0.54;81.76;100804.48;103417;1253;99084;-67
2024/03/20 04:37:33;;;;;;;28.60;21.40;;;;;;;0.53;81.74;100804.65;104076;1251;140245;-66
2024/03/20 04:40:00;;;;;;;26.90;19.60;;;;;;;0.54;81.70;100808.96;103503;1251;107163;-66
2024/03/20 04:42:27;;;;;;;29.60;20.10;;;;;;;0.55;81.83;100807.77;103395;1251;138811;-66
2024/03/20 04:44:54;;;;;;;30.60;21.60;;;;;;;0.55;81.70;100811.89;102993;1251;1002904;-67
2024/03/20 04:47:21;;;;;;;28.10;20.90;;;;;;;0.57;81.83;100809.17;103552;1251;99252;-68
2024/03/20 04:49:50;;;;;;;31.90;22.00;;;;;;;0.60;81.83;100811.43;104024;1251;138802;-69
2024/03/20 04:52:17;;;;;;;31.40;21.80;;;;;;;0.63;81.76;100807.71;103476;1252;106814;-67
2024/03/20 04:54:44;;;;;;;28.40;20.40;;;;;;;0.66;81.77;100810.16;104700;1251;139367;-67
2024/03/20 04:57:10;;;;;;;27.90;20.90;;;;;;;0.71;81.78;100810.08;103963;1252;1003196;-68
2024/03/20 04:59:36;;;;;;;29.10;20.60;;;;;;;0.81;81.81;100805.79;103444;1251;99176;-67
2024/03/20 05:02:03;;;;;;;27.40;20.40;;;;;;;0.96;81.69;100803.11;103331;1251;138693;-67
2024/03/20 05:04:30;;;;;;;27.50;20.80;;;;;;;1.17;81.58;100801.04;103438;1251;107699;-67
2024/03/20 05:06:57;;;;;;;28.60;20.50;;;;;;;1.39;81.30;100805.48;103330;1251;139464;-68
2024/03/20 05:09:24;;;;;;;28.80;20.90;;;;;;;1.54;81.18;100802.08;103418;1255;108034;-68
2024/03/20 05:11:51;;;;;;;28.10;20.50;;;;;;;1.66;80.83;100804.99;103333;1252;99177;-67
2024/03/20 05:14:18;;;;;;;24.50;19.20;;;;;;;1.79;80.69;100803.79;102535;1255;1002876;-68
2024/03/20 05:16:44;;;;;;;27.40;18.80;;;;;;;2.01;80.46;100804.55;103398;1251;106744;-68
2024/03/20 05:19:09;;;;;;;;;;;;;;;2.31;79.97;100800.42;104475;1251;139497;-66
2024/03/20 05:21:35;;;;;;;22.00;17.70;;;;;;;2.67;78.86;100802.65;104131;1252;110159;-68
2024/03/20 05:24:02;;;;;;;23.30;18.00;;;;;;;3.21;77.91;100805.65;103881;1251;99252;-68
2024/03/20 05:26:28;;;;;;;20.10;17.30;;;;;;;3.91;76.87;100807.40;103973;1251;138670;-68
2024/03/20 05:28:53;;;;;;;;;;;;;;;4.76;75.43;100807.40;104166;1251;106591;-69
2024/03/20 05:31:29;;;;;;;22.30;16.30;;;;;;;5.64;74.22;100802.82;103370;1254;124753;-69
2024/03/20 05:33:56;;;;;;;24.30;18.10;;;;;;;6.72;73.14;100805.20;104245;1251;107636;-69
2024/03/20 05:36:22;;;;;;;21.40;16.90;;;;;;;7.75;71.66;100798.50;103583;1251;139050;-68
2024/03/20 05:38:49;;;;;;;19.90;17.10;;;;;;;8.80;70.17;100796.20;103413;1255;112063;-69
2024/03/20 05:41:15;;;;;;;24.00;16.90;;;;;;;9.85;68.73;100788.52;103465;1251;108186;-68
2024/03/20 05:43:42;;;;;;;19.60;15.60;;;;;;;10.84;66.48;100794.00;103416;1251;138250;-67
2024/03/20 05:46:10;;;;;;;17.40;14.90;;;;;;;11.66;64.73;100794.11;103501;1254;107559;-68
2024/03/20 05:48:36;;;;;;;19.00;15.80;;;;;;;12.39;62.40;100796.88;103384;1251;138598;-70
2024/03/20 05:51:03;;;;;;;19.70;15.90;;;;;;;12.97;60.74;100797.44;103575;1251;112886;-68
2024/03/20 05:53:29;;;;;;;19.70;15.80;;;;;;;13.44;59.32;100796.57;103557;1251;107682;-67
2024/03/20 05:55:56;;;;;;;18.70;16.00;;;;;;;13.80;57.48;100791.26;103345;1255;138356;-68
2024/03/20 05:58:22;;;;;;;17.70;15.90;;;;;;;13.69;55.94;100795.31;103462;1254;107135;-67
2024/03/20 06:00:49;;;;;;;16.80;15.00;;;;;;;13.04;54.94;100802.80;103416;1251;138465;-69
2024/03/20 06:03:16;;;;;;;17.50;15.60;;;;;;;12.25;54.45;100803.58;103498;1254;112738;-69
2024/03/20 06:05:43;;;;;;;17.90;16.00;;;;;;;11.54;54.95;100808.20;104546;1252;108556;-73
2024/03/20 06:08:09;;;;;;;18.80;16.80;;;;;;;10.95;55.56;100814.42;103263;1251;138596;-69
2024/03/20 06:10:36;;;;;;;18.50;16.30;;;;;;;10.40;55.66;100816.40;103450;1251;107215;-68
2024/03/20 06:13:03;;;;;;;19.60;16.80;;;;;;;9.82;55.87;100815.00;103372;1251;138352;-68
2024/03/20 06:15:29;;;;;;;19.70;17.20;;;;;;;9.28;56.49;100821.23;103452;1255;112463;-68
2024/03/20 06:17:56;;;;;;;20.90;17.50;;;;;;;8.83;57.14;100822.86;103346;1255;107418;-69
2024/03/20 06:20:21;;;;;;;;;;;;;;;8.43;57.68;100826.23;103341;1252;139904;-69
2024/03/20 06:22:48;;;;;;;20.30;17.80;;;;;;;7.98;58.15;100832.69;103482;1255;107225;-69
2024/03/20 06:25:15;;;;;;;22.10;17.70;;;;;;;7.63;59.10;100834.98;103442;1255;138158;-69
2024/03/20 06:27:41;;;;;;;20.80;17.00;;;;;;;7.37;59.63;100837.34;103486;1255;113081;-68
2024/03/20 06:30:11;;;;;;;;;;;;;;;7.11;60.15;100841.70;103540;1251;107154;-68
2024/03/20 06:32:38;;;;;;;23.40;18.00;;;;;;;6.82;60.71;100842.30;104772;1251;125535;-69
2024/03/20 06:35:03;;;;;;;;;;;;;;;6.59;61.30;100841.06;104192;1251;107290;-69
2024/03/20 06:37:30;;;;;;;23.90;18.60;;;;;;;6.38;61.90;100845.67;103323;1255;124152;-68
2024/03/20 06:39:56;;;;;;;26.10;19.20;;;;;;;6.21;62.29;100853.20;103550;1251;112820;-68
2024/03/20 06:42:21;;;;;;;;;;;;;;;6.07;62.68;100853.42;103405;1251;139242;-68
2024/03/20 06:44:49;;;;;;;21.80;18.50;;;;;;;5.91;63.07;100857.27;103764;1251;99217;-68
2024/03/20 06:47:16;;;;;;;24.20;20.50;;;;;;;5.76;63.46;100863.34;104263;1251;107077;-68
2024/03/20 06:49:44;;;;;;;25.20;19.80;;;;;;;5.63;63.92;100861.31;104527;1251;138646;-68
2024/03/20 06:52:12;;;;;;;27.30;20.50;;;;;;;5.50;63.93;100856.66;103859;1251;111949;-69
2024/03/20 06:54:42;;;;;;;24.50;20.60;;;;;;;5.36;64.13;100852.89;103595;1251;138918;-69
2024/03/20 06:57:11;;;;;;;29.30;20.20;;;;;;;5.22;64.67;100856.70;103463;1251;99738;-66
2024/03/20 06:59:37;;;;;;;27.00;20.50;;;;;;;5.08;64.90;100859.81;103366;1251;107928;-66
2024/03/20 07:02:04;;;;;;;30.10;20.80;;;;;;;4.97;65.00;100865.14;104211;1251;138949;-68
2024/03/20 07:04:31;;;;;;;29.30;21.40;;;;;;;4.88;65.25;100867.04;104820;1251;111844;-68
2024/03/20 07:06:58;;;;;;;28.70;21.10;;;;;;;4.81;65.69;100867.02;103668;1255;139301;-67
2024/03/20 07:09:27;;;;;;;33.20;22.00;;;;;;;4.78;66.11;100864.95;104781;1251;98193;-68
2024/03/20 07:11:53;;;;;;;30.70;22.90;;;;;;;4.79;66.43;100863.40;104755;1252;106905;-68
2024/03/20 07:14:20;;;;;;;28.50;21.50;;;;;;;4.77;66.49;100866.85;104327;1251;139393;-68
2024/03/20 07:16:46;;;;;;;27.50;21.70;;;;;;;4.72;66.36;100868.75;103534;1251;112721;-66
2024/03/20 07:19:13;;;;;;;28.60;21.30;;;;;;;4.69;66.61;100869.78;103334;1251;139745;-67
2024/03/20 07:21:41;;;;;;;31.30;21.80;;;;;;;4.70;66.92;100866.84;103552;1251;99261;-67
2024/03/20 07:24:08;;;;;;;37.70;23.30;;;;;;;4.73;67.11;100867.89;103476;1255;108238;-67
2024/03/20 07:26:38;;;;;;;38.00;22.90;;;;;;;4.78;68.02;100874.77;104756;1251;139106;-67
2024/03/20 07:29:04;;;;;;;34.20;20.00;;;;;;;4.83;67.90;100877.19;103805;1251;113272;-67
2024/03/20 07:31:31;;;;;;;23.80;18.10;;;;;;;4.78;67.45;100875.29;102729;1252;138784;-67
2024/03/20 07:33:57;;;;;;;23.00;18.40;;;;;;;4.78;67.48;100871.33;102956;1251;99441;-66
2024/03/20 07:36:24;;;;;;;23.80;17.60;;;;;;;4.84;67.73;100872.89;103076;1252;138849;-67
2024/03/20 07:38:51;;;;;;;20.00;16.50;;;;;;;4.83;67.59;100872.19;103208;1251;99088;-67
2024/03/20 07:41:17;;;;;;;19.10;15.80;;;;;;;4.85;67.43;100874.79;104732;1255;112309;-68
2024/03/20 07:43:45;;;;;;;22.50;16.80;;;;;;;4.93;67.32;100870.48;103318;1252;138759;-67
2024/03/20 07:46:13;;;;;;;22.40;17.90;;;;;;;4.99;67.33;100861.70;103744;1251;99670;-69
2024/03/20 07:48:39;;;;;;;21.70;18.00;;;;;;;5.01;67.11;100851.35;103980;1252;138041;-68
2024/03/20 07:51:06;;;;;;;22.20;17.70;;;;;;;5.01;66.94;100856.00;103395;1251;99187;-67
2024/03/20 07:53:33;;;;;;;22.90;18.80;;;;;;;4.99;66.88;100859.45;103353;1251;112532;-67
2024/03/20 07:56:00;;;;;;;25.20;19.00;;;;;;;5.00;67.09;100854.80;104429;1251;137957;-68
2024/03/20 07:58:26;;;;;;;22.60;18.00;;;;;;;5.06;67.48;100852.23;103459;1251;99607;-68
2024/03/20 08:00:56;;;;;;;21.10;17.60;;;;;;;5.10;67.31;100853.95;103282;1252;139172;-68
2024/03/20 08:03:23;;;;;;;22.90;17.70;;;;;;;5.11;67.32;100853.27;104541;1251;97219;-66
2024/03/20 08:05:49;;;;;;;21.40;18.40;;;;;;;5.12;67.00;100857.39;103892;1251;112797;-68
2024/03/20 08:08:16;;;;;;;26.30;18.60;;;;;;;5.17;67.12;100861.01;103339;1252;138717;-68
2024/03/20 08:10:43;;;;;;;24.30;18.40;;;;;;;5.26;67.07;100859.80;104715;1251;97376;-68
2024/03/20 08:13:10;;;;;;;24.70;19.10;;;;;;;5.37;67.27;100858.75;103619;1251;139209;-68
2024/03/20 08:15:39;;;;;;;25.90;20.20;;;;;;;5.50;67.34;100858.21;103163;1252;99175;-69
2024/03/20 08:18:06;;;;;;;25.70;18.20;;;;;;;5.67;67.32;100857.67;104392;1251;113210;-67
2024/03/20 08:20:33;;;;;;;22.20;17.40;;;;;;;5.83;66.75;100856.41;103341;1252;138680;-69
2024/03/20 08:23:00;;;;;;;34.90;22.40;;;;;;;5.90;66.37;100850.02;104754;1252;97525;-68
2024/03/20 08:25:26;;;;;;;55.60;24.00;;;;;;;6.01;65.94;100852.94;104561;1251;138377;-67
2024/03/20 08:27:57;;;;;;;29.00;18.60;;;;;;;6.11;65.53;100847.38;103381;1255;99183;-67
2024/03/20 08:30:24;;;;;;;25.70;18.40;;;;;;;6.21;65.53;100846.11;103838;1252;138328;-67
2024/03/20 08:32:50;;;;;;;20.80;18.00;;;;;;;6.29;65.33;100846.77;103356;1252;107090;-67
2024/03/20 08:35:18;;;;;;;24.80;18.60;;;;;;;6.30;65.05;100845.23;103359;1255;99646;-67
2024/03/20 08:37:45;;;;;;;18.60;16.60;;;;;;;6.37;65.40;100845.69;103986;1255;138503;-68
2024/03/20 08:40:13;;;;;;;18.30;14.70;;;;;;;6.43;64.78;100847.55;103390;1252;99185;-68
2024/03/20 08:42:41;;;;;;;17.30;14.90;;;;;;;6.37;64.59;100850.52;104530;1251;139629;-68
2024/03/20 08:45:10;;;;;;;18.50;13.70;;;;;;;6.38;64.46;100849.66;104490;1251;108668;-68
2024/03/20 08:47:37;;;;;;;19.80;15.10;;;;;;;6.48;64.33;100858.59;103946;1251;98773;-68
2024/03/20 08:50:04;;;;;;;20.00;16.10;;;;;;;6.73;64.50;100860.51;103288;1252;138300;-68
2024/03/20 08:52:31;;;;;;;22.20;15.30;;;;;;;7.26;64.29;100859.40;103424;1251;99242;-68
2024/03/20 08:54:58;;;;;;;18.30;14.10;;;;;;;7.68;63.43;100862.80;103303;1253;138192;-68
2024/03/20 08:57:25;;;;;;;20.00;15.10;;;;;;;7.93;62.79;100862.02;103498;1251;107473;-68
2024/03/20 08:59:52;;;;;;;18.00;14.80;;;;;;;8.20;62.40;100864.45;104441;1251;97434;-68
2024/03/20 09:02:18;;;;;;;16.70;14.50;;;;;;;8.47;62.07;100865.67;103223;1251;138177;-68
2024/03/20 09:04:45;;;;;;;18.10;15.30;;;;;;;8.66;61.33;100866.98;103295;1252;99366;-67
2024/03/20 09:07:11;;;;;;;16.90;14.70;;;;;;;8.73;60.76;100858.04;103285;1254;138052;-67
2024/03/20 09:09:38;;;;;;;21.60;15.70;;;;;;;8.69;60.05;100859.33;103345;1252;107454;-67
2024/03/20 09:12:06;;;;;;;18.20;15.00;;;;;;;8.61;59.66;100860.63;103415;1252;99199;-67
2024/03/20 09:14:33;;;;;;;18.50;15.30;;;;;;;8.73;60.07;100863.25;103325;1255;138119;-68
2024/03/20 09:17:00;;;;;;;18.60;15.70;;;;;;;9.22;60.38;100861.59;104306;1255;97064;-67
2024/03/20 09:19:27;;;;;;;17.70;15.30;;;;;;;10.50;60.46;100847.63;103307;1252;138133;-67
2024/03/20 09:21:53;;;;;;;17.70;14.80;;;;;;;12.23;59.90;100841.08;104625;1251;106847;-67
2024/03/20 09:24:24;;;;;;;15.00;13.40;;;;;;;13.91;58.30;100831.20;103270;1257;138494;-67
2024/03/20 09:26:52;;;;;;;19.50;12.70;;;;;;;14.96;55.90;100828.05;103350;1252;109936;-68
2024/03/20 09:29:18;;;;;;;12.70;10.70;;;;;;;15.94;54.48;100825.03;103386;1255;101479;-67
2024/03/20 09:31:45;;;;;;;41.10;14.40;;;;;;;17.04;53.07;100826.33;103073;1251;139159;-66
2024/03/20 09:34:12;;;;;;;158.80;22.80;;;;;;;18.03;51.05;100821.23;103327;1252;108589;-68
2024/03/20 09:36:39;;;;;;;13.40;11.20;;;;;;;18.38;48.03;100821.09;103205;1252;138709;-68
2024/03/20 09:39:06;;;;;;;20.30;11.90;;;;;;;18.00;46.25;100822.98;103587;1252;108584;-68
2024/03/20 09:41:34;;;;;;;125.50;21.00;;;;;;;17.72;46.53;100822.58;103562;1252;99047;-67
2024/03/20 09:44:01;;;;;;;41.40;12.70;;;;;;;17.96;46.50;100816.55;103798;1253;138518;-66
2024/03/20 09:46:30;;;;;;;23.50;10.80;;;;;;;18.83;46.68;100816.28;103356;1251;107831;-68
2024/03/20 09:48:56;;;;;;;62.00;16.80;;;;;;;19.74;45.97;100810.55;103158;1252;139517;-67
2024/03/20 09:51:24;;;;;;;85.80;17.00;;;;;;;20.75;45.34;100804.27;103319;1252;109354;-68
2024/03/20 09:53:52;;;;;;;166.10;23.70;;;;;;;21.63;43.41;100797.14;103178;1255;99178;-67
2024/03/20 09:56:25;;;;;;;20.50;10.60;;;;;;;22.05;41.68;100792.92;103245;1257;139497;-67
2024/03/20 09:58:53;;;;;;;43.50;11.70;;;;;;;22.49;41.52;100791.70;104064;1252;108054;-68
2024/03/20 10:01:21;;;;;;;106.90;17.70;;;;;;;23.15;40.71;100792.88;103282;1252;138427;-68
2024/03/20 10:03:53;;;;;;;54.90;14.50;;;;;;;23.45;38.70;100794.79;103367;1255;107568;-68
2024/03/20 10:06:20;;;;;;;35.70;13.00;;;;;;;23.49;37.75;100795.30;103216;1255;99175;-68
2024/03/20 10:08:47;;;;;;;27.80;12.00;;;;;;;23.35;36.87;100799.10;103308;1251;113732;-67
2024/03/20 10:11:15;;;;;;;106.50;49.10;;;;;;;23.38;37.26;100796.44;103232;1255;108333;-68
2024/03/20 10:13:42;;;;;;;66.10;19.50;;;;;;;23.18;36.68;100797.61;103257;1253;139880;-68
2024/03/20 10:16:12;;;;;;;22.30;12.10;;;;;;;22.95;36.88;100794.55;103308;1253;108413;-66
2024/03/20 10:18:52;;;;;;;62.60;15.80;;;;;;;23.17;36.95;100793.23;103157;1251;138598;-66
2024/03/20 10:21:18;;;;;;;14.50;10.30;;;;;;;23.47;36.91;100789.15;104069;1252;111806;-67
2024/03/20 10:23:45;;;;;;;34.30;12.60;;;;;;;23.76;36.20;100785.98;103522;1251;108637;-67
2024/03/20 10:26:14;;;;;;;49.00;13.40;;;;;;;23.60;35.28;100784.28;103489;1251;138400;-67
2024/03/20 10:28:41;;;;;;;109.60;18.80;;;;;;;23.44;35.58;100785.64;103513;1252;107667;-67
2024/03/20 10:31:10;;;;;;;140.00;23.50;;;;;;;23.49;35.40;100786.69;104283;1251;138792;-68
2024/03/20 10:33:56;;;;;;;61.20;13.80;;;;;;;23.37;34.73;100785.27;103648;1253;113397;-67
2024/03/20 10:36:23;;;;;;;168.60;24.20;;;;;;;23.08;34.49;100783.27;103977;1253;108200;-69
2024/03/20 10:38:52;;;;;;;981.00;110.20;;;;;;;22.66;34.32;100781.82;104145;1251;99168;-70
2024/03/20 10:41:18;;;;;;;306.60;31.10;;;;;;;22.43;34.72;100777.29;104554;1255;108153;-68
2024/03/20 10:43:46;;;;;;;49.50;14.40;;;;;;;22.30;34.69;100777.38;103404;1252;138859;-68
2024/03/20 10:46:16;;;;;;;24.30;12.50;;;;;;;22.15;34.55;100768.70;103612;1253;113060;-68
2024/03/20 10:48:43;;;;;;;25.30;11.80;;;;;;;22.17;34.78;100772.45;103382;1252;139620;-67
2024/03/20 10:51:14;;;;;;;13.10;11.40;;;;;;;22.24;34.84;100769.27;103610;1252;99158;-68
2024/03/20 10:53:41;;;;;;;52.80;14.70;;;;;;;22.16;34.55;100768.24;103500;1251;108545;-68
2024/03/20 10:56:08;;;;;;;38.90;12.80;;;;;;;22.04;34.81;100766.29;103717;1252;139372;-67
2024/03/20 10:58:35;;;;;;;16.60;11.90;;;;;;;22.03;34.61;100763.88;103627;1251;113242;-68
2024/03/20 11:01:02;;;;;;;16.50;12.00;;;;;;;21.68;34.58;100765.11;103365;1252;138660;-68